sensor_id;sensor_type;location;lat;lon;timestamp;P1;durP1;ratioP1;P2;durP2;ratioP2
69047;SDS011;56119;50.118;8.642;2023-04-24T00:01:21;1.65;;;0.80;;
69047;SDS011;56119;50.118;8.642;2023-04-24T00:03:47;1.90;;;0.90;;
69047;SDS011;56119;50.118;8.642;2023-04-24T00:06:13;2.67;;;1.17;;
69047;SDS011;56119;50.118;8.642;2023-04-24T00:08:41;1.17;;;1.00;;
69047;SDS011;56119;50.118;8.642;2023-04-24T00:11:08;3.15;;;0.85;;
69047;SDS011;56119;50.118;8.642;2023-04-24T00:13:34;2.35;;;0.90;;
69047;SDS011;56119;50.118;8.642;2023-04-24T00:16:00;2.58;;;1.08;;
69047;SDS011;56119;50.118;8.642;2023-04-24T00:18:26;1.88;;;1.38;;
69047;SDS011;56119;50.118;8.642;2023-04-24T00:20:52;1.80;;;0.77;;
69047;SDS011;56119;50.118;8.642;2023-04-24T00:23:18;2.78;;;1.13;;
69047;SDS011;56119;50.118;8.642;2023-04-24T00:25:44;2.53;;;1.13;;
69047;SDS011;56119;50.118;8.642;2023-04-24T00:28:10;3.42;;;1.40;;
69047;SDS011;56119;50.118;8.642;2023-04-24T00:30:39;2.28;;;1.17;;
69047;SDS011;56119;50.118;8.642;2023-04-24T00:33:06;4.20;;;1.30;;
69047;SDS011;56119;50.118;8.642;2023-04-24T00:35:32;4.05;;;1.15;;
69047;SDS011;56119;50.118;8.642;2023-04-24T00:37:58;3.20;;;1.45;;
69047;SDS011;56119;50.118;8.642;2023-04-24T00:40:24;1.77;;;1.42;;
69047;SDS011;56119;50.118;8.642;2023-04-24T00:42:50;2.65;;;1.50;;
69047;SDS011;56119;50.118;8.642;2023-04-24T00:45:16;3.10;;;1.65;;
69047;SDS011;56119;50.118;8.642;2023-04-24T00:47:42;3.72;;;1.70;;
69047;SDS011;56119;50.118;8.642;2023-04-24T00:50:08;2.03;;;1.15;;
69047;SDS011;56119;50.118;8.642;2023-04-24T00:52:36;2.67;;;1.52;;
69047;SDS011;56119;50.118;8.642;2023-04-24T00:55:02;2.88;;;1.23;;
69047;SDS011;56119;50.118;8.642;2023-04-24T00:57:28;4.25;;;1.75;;
69047;SDS011;56119;50.118;8.642;2023-04-24T00:59:54;2.42;;;1.48;;
69047;SDS011;56119;50.118;8.642;2023-04-24T01:02:20;2.25;;;1.30;;
69047;SDS011;56119;50.118;8.642;2023-04-24T01:04:49;2.72;;;1.50;;
69047;SDS011;56119;50.118;8.642;2023-04-24T01:07:15;2.70;;;1.30;;
69047;SDS011;56119;50.118;8.642;2023-04-24T01:09:42;3.28;;;2.00;;
69047;SDS011;56119;50.118;8.642;2023-04-24T01:12:07;2.50;;;1.08;;
69047;SDS011;56119;50.118;8.642;2023-04-24T01:14:34;2.35;;;1.08;;
69047;SDS011;56119;50.118;8.642;2023-04-24T01:17:00;1.63;;;1.33;;
69047;SDS011;56119;50.118;8.642;2023-04-24T01:19:26;3.22;;;1.10;;
69047;SDS011;56119;50.118;8.642;2023-04-24T01:21:53;2.92;;;1.52;;
69047;SDS011;56119;50.118;8.642;2023-04-24T01:24:19;2.20;;;1.20;;
69047;SDS011;56119;50.118;8.642;2023-04-24T01:26:45;3.17;;;1.88;;
69047;SDS011;56119;50.118;8.642;2023-04-24T01:29:11;3.10;;;1.23;;
69047;SDS011;56119;50.118;8.642;2023-04-24T01:31:38;3.58;;;1.20;;
69047;SDS011;56119;50.118;8.642;2023-04-24T01:34:04;4.50;;;1.75;;
69047;SDS011;56119;50.118;8.642;2023-04-24T01:36:31;2.92;;;1.27;;
69047;SDS011;56119;50.118;8.642;2023-04-24T01:38:57;2.75;;;1.10;;
69047;SDS011;56119;50.118;8.642;2023-04-24T01:41:23;4.35;;;1.25;;
69047;SDS011;56119;50.118;8.642;2023-04-24T01:43:50;3.38;;;1.50;;
69047;SDS011;56119;50.118;8.642;2023-04-24T01:46:16;4.40;;;1.65;;
69047;SDS011;56119;50.118;8.642;2023-04-24T01:48:42;2.13;;;1.27;;
69047;SDS011;56119;50.118;8.642;2023-04-24T01:51:10;2.53;;;1.70;;
69047;SDS011;56119;50.118;8.642;2023-04-24T01:53:36;3.05;;;1.17;;
69047;SDS011;56119;50.118;8.642;2023-04-24T01:56:02;2.65;;;1.30;;
69047;SDS011;56119;50.118;8.642;2023-04-24T01:58:28;2.03;;;1.17;;
69047;SDS011;56119;50.118;8.642;2023-04-24T02:00:56;3.92;;;1.17;;
69047;SDS011;56119;50.118;8.642;2023-04-24T02:03:23;4.38;;;1.20;;
69047;SDS011;56119;50.118;8.642;2023-04-24T02:05:49;2.70;;;1.13;;
69047;SDS011;56119;50.118;8.642;2023-04-24T02:08:15;1.60;;;1.17;;
69047;SDS011;56119;50.118;8.642;2023-04-24T02:10:41;2.65;;;1.35;;
69047;SDS011;56119;50.118;8.642;2023-04-24T02:13:07;2.92;;;1.25;;
69047;SDS011;56119;50.118;8.642;2023-04-24T02:15:33;2.03;;;1.38;;
69047;SDS011;56119;50.118;8.642;2023-04-24T02:18:00;1.40;;;1.10;;
69047;SDS011;56119;50.118;8.642;2023-04-24T02:20:26;4.25;;;1.35;;
69047;SDS011;56119;50.118;8.642;2023-04-24T02:22:52;4.78;;;1.30;;
69047;SDS011;56119;50.118;8.642;2023-04-24T02:25:18;3.72;;;1.30;;
69047;SDS011;56119;50.118;8.642;2023-04-24T02:27:44;3.35;;;1.50;;
69047;SDS011;56119;50.118;8.642;2023-04-24T02:30:10;5.40;;;1.83;;
69047;SDS011;56119;50.118;8.642;2023-04-24T02:32:36;2.15;;;1.20;;
69047;SDS011;56119;50.118;8.642;2023-04-24T02:35:04;2.28;;;1.38;;
69047;SDS011;56119;50.118;8.642;2023-04-24T02:37:30;2.67;;;1.23;;
69047;SDS011;56119;50.118;8.642;2023-04-24T02:39:56;2.65;;;1.25;;
69047;SDS011;56119;50.118;8.642;2023-04-24T02:42:21;4.15;;;1.83;;
69047;SDS011;56119;50.118;8.642;2023-04-24T02:44:47;3.08;;;0.98;;
69047;SDS011;56119;50.118;8.642;2023-04-24T02:47:15;3.95;;;1.17;;
69047;SDS011;56119;50.118;8.642;2023-04-24T02:49:41;3.35;;;1.10;;
69047;SDS011;56119;50.118;8.642;2023-04-24T02:52:07;1.55;;;0.95;;
69047;SDS011;56119;50.118;8.642;2023-04-24T02:54:33;2.13;;;1.00;;
69047;SDS011;56119;50.118;8.642;2023-04-24T02:56:59;1.67;;;0.88;;
69047;SDS011;56119;50.118;8.642;2023-04-24T02:59:26;2.67;;;1.00;;
69047;SDS011;56119;50.118;8.642;2023-04-24T03:01:53;2.30;;;1.23;;
69047;SDS011;56119;50.118;8.642;2023-04-24T03:04:19;1.48;;;0.82;;
69047;SDS011;56119;50.118;8.642;2023-04-24T03:06:45;5.03;;;1.42;;
69047;SDS011;56119;50.118;8.642;2023-04-24T03:09:11;3.75;;;1.05;;
69047;SDS011;56119;50.118;8.642;2023-04-24T03:11:37;2.08;;;1.25;;
69047;SDS011;56119;50.118;8.642;2023-04-24T03:14:03;2.20;;;0.95;;
69047;SDS011;56119;50.118;8.642;2023-04-24T03:16:29;3.88;;;1.23;;
69047;SDS011;56119;50.118;8.642;2023-04-24T03:18:55;2.45;;;1.00;;
69047;SDS011;56119;50.118;8.642;2023-04-24T03:21:21;1.77;;;0.80;;
69047;SDS011;56119;50.118;8.642;2023-04-24T03:23:47;2.75;;;1.05;;
69047;SDS011;56119;50.118;8.642;2023-04-24T03:26:13;0.93;;;0.70;;
69047;SDS011;56119;50.118;8.642;2023-04-24T03:28:39;2.53;;;1.10;;
69047;SDS011;56119;50.118;8.642;2023-04-24T03:31:05;3.22;;;1.23;;
69047;SDS011;56119;50.118;8.642;2023-04-24T03:33:32;1.90;;;0.90;;
69047;SDS011;56119;50.118;8.642;2023-04-24T03:35:57;2.10;;;1.17;;
69047;SDS011;56119;50.118;8.642;2023-04-24T03:38:23;2.60;;;1.15;;
69047;SDS011;56119;50.118;8.642;2023-04-24T03:40:49;5.43;;;1.65;;
69047;SDS011;56119;50.118;8.642;2023-04-24T03:43:15;1.98;;;0.90;;
69047;SDS011;56119;50.118;8.642;2023-04-24T03:45:41;2.13;;;0.80;;
69047;SDS011;56119;50.118;8.642;2023-04-24T03:48:07;2.65;;;0.98;;
69047;SDS011;56119;50.118;8.642;2023-04-24T03:50:33;1.67;;;1.13;;
69047;SDS011;56119;50.118;8.642;2023-04-24T03:52:59;2.22;;;0.93;;
69047;SDS011;56119;50.118;8.642;2023-04-24T03:55:25;3.72;;;1.05;;
69047;SDS011;56119;50.118;8.642;2023-04-24T03:57:51;2.60;;;1.20;;
69047;SDS011;56119;50.118;8.642;2023-04-24T04:00:17;2.03;;;0.98;;
69047;SDS011;56119;50.118;8.642;2023-04-24T04:02:43;4.15;;;1.30;;
69047;SDS011;56119;50.118;8.642;2023-04-24T04:05:09;3.70;;;1.10;;
69047;SDS011;56119;50.118;8.642;2023-04-24T04:07:35;1.88;;;0.93;;
69047;SDS011;56119;50.118;8.642;2023-04-24T04:10:01;1.60;;;0.85;;
69047;SDS011;56119;50.118;8.642;2023-04-24T04:12:28;1.60;;;1.23;;
69047;SDS011;56119;50.118;8.642;2023-04-24T04:14:54;2.35;;;1.10;;
69047;SDS011;56119;50.118;8.642;2023-04-24T04:17:20;1.52;;;1.10;;
69047;SDS011;56119;50.118;8.642;2023-04-24T04:19:46;3.00;;;1.00;;
69047;SDS011;56119;50.118;8.642;2023-04-24T04:22:12;2.10;;;1.00;;
69047;SDS011;56119;50.118;8.642;2023-04-24T04:24:38;1.88;;;1.40;;
69047;SDS011;56119;50.118;8.642;2023-04-24T04:27:05;2.97;;;1.48;;
69047;SDS011;56119;50.118;8.642;2023-04-24T04:29:31;1.33;;;1.20;;
69047;SDS011;56119;50.118;8.642;2023-04-24T04:31:58;2.03;;;1.40;;
69047;SDS011;56119;50.118;8.642;2023-04-24T04:34:24;4.80;;;1.40;;
69047;SDS011;56119;50.118;8.642;2023-04-24T04:36:50;2.83;;;1.30;;
69047;SDS011;56119;50.118;8.642;2023-04-24T04:39:16;1.13;;;0.82;;
69047;SDS011;56119;50.118;8.642;2023-04-24T04:41:43;1.65;;;1.42;;
69047;SDS011;56119;50.118;8.642;2023-04-24T04:44:11;2.63;;;1.60;;
69047;SDS011;56119;50.118;8.642;2023-04-24T04:46:37;3.00;;;1.88;;
69047;SDS011;56119;50.118;8.642;2023-04-24T04:49:03;3.83;;;2.08;;
69047;SDS011;56119;50.118;8.642;2023-04-24T04:54:20;3.22;;;1.80;;
69047;SDS011;56119;50.118;8.642;2023-04-24T04:56:46;3.08;;;2.33;;
69047;SDS011;56119;50.118;8.642;2023-04-24T04:59:12;4.22;;;1.83;;
69047;SDS011;56119;50.118;8.642;2023-04-24T05:01:38;2.45;;;1.98;;
69047;SDS011;56119;50.118;8.642;2023-04-24T05:04:05;2.28;;;1.88;;
69047;SDS011;56119;50.118;8.642;2023-04-24T05:06:31;4.78;;;2.20;;
69047;SDS011;56119;50.118;8.642;2023-04-24T05:08:57;3.13;;;2.35;;
69047;SDS011;56119;50.118;8.642;2023-04-24T05:11:23;2.85;;;1.98;;
69047;SDS011;56119;50.118;8.642;2023-04-24T05:13:49;3.63;;;2.72;;
69047;SDS011;56119;50.118;8.642;2023-04-24T05:16:15;4.63;;;2.40;;
69047;SDS011;56119;50.118;8.642;2023-04-24T05:18:42;3.65;;;2.15;;
69047;SDS011;56119;50.118;8.642;2023-04-24T05:21:11;5.00;;;2.15;;
69047;SDS011;56119;50.118;8.642;2023-04-24T05:23:37;3.83;;;2.53;;
69047;SDS011;56119;50.118;8.642;2023-04-24T05:26:03;3.65;;;2.47;;
69047;SDS011;56119;50.118;8.642;2023-04-24T05:28:29;2.42;;;2.22;;
69047;SDS011;56119;50.118;8.642;2023-04-24T05:30:55;2.47;;;1.90;;
69047;SDS011;56119;50.118;8.642;2023-04-24T05:33:21;3.75;;;2.63;;
69047;SDS011;56119;50.118;8.642;2023-04-24T05:35:48;3.35;;;2.85;;
69047;SDS011;56119;50.118;8.642;2023-04-24T05:38:14;3.85;;;2.50;;
69047;SDS011;56119;50.118;8.642;2023-04-24T05:40:42;4.82;;;2.53;;
69047;SDS011;56119;50.118;8.642;2023-04-24T05:43:08;6.47;;;2.60;;
69047;SDS011;56119;50.118;8.642;2023-04-24T05:45:34;3.42;;;2.25;;
69047;SDS011;56119;50.118;8.642;2023-04-24T05:48:01;4.60;;;2.88;;
69047;SDS011;56119;50.118;8.642;2023-04-24T05:50:27;3.17;;;2.55;;
69047;SDS011;56119;50.118;8.642;2023-04-24T05:52:53;3.80;;;2.80;;
69047;SDS011;56119;50.118;8.642;2023-04-24T05:55:19;5.00;;;3.00;;
69047;SDS011;56119;50.118;8.642;2023-04-24T05:57:45;5.07;;;3.05;;
69047;SDS011;56119;50.118;8.642;2023-04-24T06:00:12;4.28;;;2.67;;
69047;SDS011;56119;50.118;8.642;2023-04-24T06:02:38;4.28;;;2.85;;
69047;SDS011;56119;50.118;8.642;2023-04-24T06:05:04;4.18;;;2.70;;
69047;SDS011;56119;50.118;8.642;2023-04-24T06:07:30;4.90;;;3.08;;
69047;SDS011;56119;50.118;8.642;2023-04-24T06:09:56;5.15;;;2.63;;
69047;SDS011;56119;50.118;8.642;2023-04-24T06:12:22;5.35;;;3.08;;
69047;SDS011;56119;50.118;8.642;2023-04-24T06:14:48;5.47;;;2.95;;
69047;SDS011;56119;50.118;8.642;2023-04-24T06:17:15;4.75;;;2.90;;
69047;SDS011;56119;50.118;8.642;2023-04-24T06:19:41;3.67;;;2.60;;
69047;SDS011;56119;50.118;8.642;2023-04-24T06:22:07;4.35;;;2.60;;
69047;SDS011;56119;50.118;8.642;2023-04-24T06:24:33;5.57;;;2.28;;
69047;SDS011;56119;50.118;8.642;2023-04-24T06:26:59;3.95;;;2.70;;
69047;SDS011;56119;50.118;8.642;2023-04-24T06:29:26;4.85;;;3.05;;
69047;SDS011;56119;50.118;8.642;2023-04-24T06:31:52;4.60;;;3.50;;
69047;SDS011;56119;50.118;8.642;2023-04-24T06:34:18;6.60;;;3.03;;
69047;SDS011;56119;50.118;8.642;2023-04-24T06:36:44;3.42;;;2.78;;
69047;SDS011;56119;50.118;8.642;2023-04-24T06:39:10;4.15;;;3.03;;
69047;SDS011;56119;50.118;8.642;2023-04-24T06:41:37;4.38;;;3.40;;
69047;SDS011;56119;50.118;8.642;2023-04-24T06:44:03;8.48;;;3.83;;
69047;SDS011;56119;50.118;8.642;2023-04-24T06:46:29;5.18;;;3.20;;
69047;SDS011;56119;50.118;8.642;2023-04-24T06:48:55;4.78;;;3.20;;
69047;SDS011;56119;50.118;8.642;2023-04-24T06:51:25;5.07;;;3.65;;
69047;SDS011;56119;50.118;8.642;2023-04-24T06:53:51;4.53;;;3.65;;
69047;SDS011;56119;50.118;8.642;2023-04-24T06:56:17;5.50;;;3.55;;
69047;SDS011;56119;50.118;8.642;2023-04-24T06:58:43;5.85;;;3.40;;
69047;SDS011;56119;50.118;8.642;2023-04-24T07:01:10;5.30;;;3.35;;
69047;SDS011;56119;50.118;8.642;2023-04-24T07:03:36;4.38;;;3.63;;
69047;SDS011;56119;50.118;8.642;2023-04-24T07:06:02;5.03;;;3.75;;
69047;SDS011;56119;50.118;8.642;2023-04-24T07:08:28;6.55;;;4.32;;
69047;SDS011;56119;50.118;8.642;2023-04-24T07:10:58;5.88;;;3.60;;
69047;SDS011;56119;50.118;8.642;2023-04-24T07:13:24;5.07;;;3.45;;
69047;SDS011;56119;50.118;8.642;2023-04-24T07:15:50;3.90;;;3.22;;
69047;SDS011;56119;50.118;8.642;2023-04-24T07:18:20;5.15;;;4.07;;
69047;SDS011;56119;50.118;8.642;2023-04-24T07:20:46;4.72;;;3.47;;
69047;SDS011;56119;50.118;8.642;2023-04-24T07:23:12;4.97;;;3.75;;
69047;SDS011;56119;50.118;8.642;2023-04-24T07:25:38;6.47;;;3.60;;
69047;SDS011;56119;50.118;8.642;2023-04-24T07:28:05;5.13;;;4.07;;
69047;SDS011;56119;50.118;8.642;2023-04-24T07:30:31;4.30;;;3.50;;
69047;SDS011;56119;50.118;8.642;2023-04-24T07:32:58;5.70;;;4.50;;
69047;SDS011;56119;50.118;8.642;2023-04-24T07:35:25;4.82;;;4.00;;
69047;SDS011;56119;50.118;8.642;2023-04-24T07:37:51;4.50;;;3.22;;
69047;SDS011;56119;50.118;8.642;2023-04-24T07:40:18;4.30;;;3.90;;
69047;SDS011;56119;50.118;8.642;2023-04-24T07:42:44;6.07;;;3.92;;
69047;SDS011;56119;50.118;8.642;2023-04-24T07:45:10;5.15;;;3.78;;
69047;SDS011;56119;50.118;8.642;2023-04-24T07:47:36;4.28;;;3.15;;
69047;SDS011;56119;50.118;8.642;2023-04-24T07:50:22;6.88;;;3.25;;
69047;SDS011;56119;50.118;8.642;2023-04-24T07:52:48;7.22;;;3.50;;
69047;SDS011;56119;50.118;8.642;2023-04-24T07:55:19;3.83;;;3.22;;
69047;SDS011;56119;50.118;8.642;2023-04-24T07:57:45;5.05;;;3.42;;
69047;SDS011;56119;50.118;8.642;2023-04-24T08:00:11;3.85;;;3.10;;
69047;SDS011;56119;50.118;8.642;2023-04-24T08:02:37;6.05;;;3.53;;
69047;SDS011;56119;50.118;8.642;2023-04-24T08:05:03;3.80;;;3.00;;
69047;SDS011;56119;50.118;8.642;2023-04-24T08:07:29;4.55;;;3.72;;
69047;SDS011;56119;50.118;8.642;2023-04-24T08:09:56;4.63;;;3.65;;
69047;SDS011;56119;50.118;8.642;2023-04-24T08:12:22;5.07;;;3.60;;
69047;SDS011;56119;50.118;8.642;2023-04-24T08:14:48;5.88;;;3.65;;
69047;SDS011;56119;50.118;8.642;2023-04-24T08:17:14;5.40;;;3.22;;
69047;SDS011;56119;50.118;8.642;2023-04-24T08:19:40;4.38;;;2.92;;
69047;SDS011;56119;50.118;8.642;2023-04-24T08:22:12;5.40;;;3.35;;
69047;SDS011;56119;50.118;8.642;2023-04-24T08:24:38;3.63;;;3.00;;
69047;SDS011;56119;50.118;8.642;2023-04-24T08:27:04;4.13;;;3.22;;
69047;SDS011;56119;50.118;8.642;2023-04-24T08:29:30;6.18;;;3.10;;
69047;SDS011;56119;50.118;8.642;2023-04-24T08:31:56;4.25;;;3.20;;
69047;SDS011;56119;50.118;8.642;2023-04-24T08:34:22;3.92;;;2.75;;
69047;SDS011;56119;50.118;8.642;2023-04-24T08:36:48;4.22;;;2.78;;
69047;SDS011;56119;50.118;8.642;2023-04-24T08:39:14;3.25;;;2.75;;
69047;SDS011;56119;50.118;8.642;2023-04-24T08:41:41;3.05;;;2.60;;
69047;SDS011;56119;50.118;8.642;2023-04-24T08:44:08;4.18;;;3.10;;
69047;SDS011;56119;50.118;8.642;2023-04-24T08:46:35;4.90;;;3.38;;
69047;SDS011;56119;50.118;8.642;2023-04-24T08:49:02;3.35;;;2.90;;
69047;SDS011;56119;50.118;8.642;2023-04-24T08:51:29;3.20;;;2.83;;
69047;SDS011;56119;50.118;8.642;2023-04-24T08:53:55;3.97;;;3.05;;
69047;SDS011;56119;50.118;8.642;2023-04-24T08:56:22;3.38;;;2.47;;
69047;SDS011;56119;50.118;8.642;2023-04-24T08:58:49;4.65;;;2.80;;
69047;SDS011;56119;50.118;8.642;2023-04-24T09:01:15;3.20;;;2.83;;
69047;SDS011;56119;50.118;8.642;2023-04-24T09:03:42;3.63;;;2.90;;
69047;SDS011;56119;50.118;8.642;2023-04-24T09:06:08;3.83;;;2.75;;
69047;SDS011;56119;50.118;8.642;2023-04-24T09:08:35;3.15;;;2.70;;
69047;SDS011;56119;50.118;8.642;2023-04-24T09:11:02;3.67;;;3.00;;
69047;SDS011;56119;50.118;8.642;2023-04-24T09:13:28;4.78;;;2.83;;
69047;SDS011;56119;50.118;8.642;2023-04-24T09:15:55;5.15;;;3.22;;
69047;SDS011;56119;50.118;8.642;2023-04-24T09:18:22;3.25;;;2.60;;
69047;SDS011;56119;50.118;8.642;2023-04-24T09:21:01;3.92;;;2.55;;
69047;SDS011;56119;50.118;8.642;2023-04-24T09:23:31;2.50;;;2.30;;
69047;SDS011;56119;50.118;8.642;2023-04-24T09:25:57;6.32;;;2.70;;
69047;SDS011;56119;50.118;8.642;2023-04-24T09:28:42;3.58;;;2.58;;
69047;SDS011;56119;50.118;8.642;2023-04-24T09:31:13;5.70;;;2.80;;
69047;SDS011;56119;50.118;8.642;2023-04-24T09:33:56;4.07;;;2.70;;
69047;SDS011;56119;50.118;8.642;2023-04-24T09:36:29;5.13;;;3.20;;
69047;SDS011;56119;50.118;8.642;2023-04-24T09:38:58;4.43;;;2.88;;
69047;SDS011;56119;50.118;8.642;2023-04-24T09:41:24;4.65;;;2.78;;
69047;SDS011;56119;50.118;8.642;2023-04-24T09:43:52;4.57;;;3.08;;
69047;SDS011;56119;50.118;8.642;2023-04-24T09:46:19;4.40;;;3.03;;
69047;SDS011;56119;50.118;8.642;2023-04-24T09:48:46;3.35;;;2.50;;
69047;SDS011;56119;50.118;8.642;2023-04-24T09:51:12;4.15;;;3.03;;
69047;SDS011;56119;50.118;8.642;2023-04-24T09:53:44;4.10;;;2.72;;
69047;SDS011;56119;50.118;8.642;2023-04-24T09:56:11;4.95;;;3.22;;
69047;SDS011;56119;50.118;8.642;2023-04-24T09:58:38;3.42;;;2.53;;
69047;SDS011;56119;50.118;8.642;2023-04-24T10:01:04;3.80;;;2.28;;
69047;SDS011;56119;50.118;8.642;2023-04-24T10:03:33;2.70;;;2.40;;
69047;SDS011;56119;50.118;8.642;2023-04-24T10:06:00;3.45;;;2.28;;
69047;SDS011;56119;50.118;8.642;2023-04-24T10:08:26;3.08;;;2.72;;
69047;SDS011;56119;50.118;8.642;2023-04-24T10:10:58;5.40;;;2.30;;
69047;SDS011;56119;50.118;8.642;2023-04-24T10:13:25;5.93;;;2.65;;
69047;SDS011;56119;50.118;8.642;2023-04-24T10:15:51;3.83;;;2.53;;
69047;SDS011;56119;50.118;8.642;2023-04-24T10:18:17;4.40;;;2.40;;
69047;SDS011;56119;50.118;8.642;2023-04-24T10:20:43;3.80;;;2.30;;
69047;SDS011;56119;50.118;8.642;2023-04-24T10:23:10;3.45;;;2.35;;
69047;SDS011;56119;50.118;8.642;2023-04-24T10:25:36;3.97;;;2.40;;
69047;SDS011;56119;50.118;8.642;2023-04-24T10:28:02;5.30;;;2.38;;
69047;SDS011;56119;50.118;8.642;2023-04-24T10:30:35;4.85;;;2.45;;
69047;SDS011;56119;50.118;8.642;2023-04-24T10:33:04;4.55;;;2.70;;
69047;SDS011;56119;50.118;8.642;2023-04-24T10:35:31;3.80;;;2.72;;
69047;SDS011;56119;50.118;8.642;2023-04-24T10:38:00;3.00;;;2.70;;
69047;SDS011;56119;50.118;8.642;2023-04-24T10:40:30;4.85;;;2.83;;
69047;SDS011;56119;50.118;8.642;2023-04-24T10:42:56;4.32;;;3.42;;
69047;SDS011;56119;50.118;8.642;2023-04-24T10:45:23;3.60;;;3.20;;
69047;SDS011;56119;50.118;8.642;2023-04-24T10:47:59;4.53;;;3.33;;
69047;SDS011;56119;50.118;8.642;2023-04-24T10:50:26;6.85;;;3.38;;
69047;SDS011;56119;50.118;8.642;2023-04-24T10:52:53;3.80;;;3.40;;
69047;SDS011;56119;50.118;8.642;2023-04-24T10:55:57;5.82;;;2.72;;
69047;SDS011;56119;50.118;8.642;2023-04-24T10:58:13;5.03;;;2.80;;
69047;SDS011;56119;50.118;8.642;2023-04-24T11:00:40;4.28;;;2.40;;
69047;SDS011;56119;50.118;8.642;2023-04-24T11:03:12;3.72;;;2.30;;
69047;SDS011;56119;50.118;8.642;2023-04-24T11:05:49;3.53;;;2.55;;
69047;SDS011;56119;50.118;8.642;2023-04-24T11:08:21;2.90;;;2.00;;
69047;SDS011;56119;50.118;8.642;2023-04-24T11:10:53;2.72;;;2.15;;
69047;SDS011;56119;50.118;8.642;2023-04-24T11:13:23;2.88;;;1.75;;
69047;SDS011;56119;50.118;8.642;2023-04-24T11:18:38;2.42;;;1.63;;
69047;SDS011;56119;50.118;8.642;2023-04-24T11:21:12;1.77;;;1.35;;
69047;SDS011;56119;50.118;8.642;2023-04-24T11:23:39;5.05;;;1.33;;
69047;SDS011;56119;50.118;8.642;2023-04-24T11:26:12;2.25;;;1.30;;
69047;SDS011;56119;50.118;8.642;2023-04-24T11:28:48;3.00;;;1.35;;
69047;SDS011;56119;50.118;8.642;2023-04-24T11:34:10;1.90;;;1.60;;
69047;SDS011;56119;50.118;8.642;2023-04-24T11:36:37;2.75;;;1.92;;
69047;SDS011;56119;50.118;8.642;2023-04-24T11:39:03;2.83;;;1.42;;
69047;SDS011;56119;50.118;8.642;2023-04-24T11:41:29;4.22;;;1.45;;
69047;SDS011;56119;50.118;8.642;2023-04-24T11:43:55;2.80;;;1.42;;
69047;SDS011;56119;50.118;8.642;2023-04-24T11:46:22;2.60;;;1.88;;
69047;SDS011;56119;50.118;8.642;2023-04-24T11:48:48;2.35;;;1.58;;
69047;SDS011;56119;50.118;8.642;2023-04-24T11:51:14;2.22;;;1.60;;
69047;SDS011;56119;50.118;8.642;2023-04-24T11:53:40;2.25;;;1.40;;
69047;SDS011;56119;50.118;8.642;2023-04-24T11:56:08;1.60;;;1.25;;
69047;SDS011;56119;50.118;8.642;2023-04-24T11:58:35;2.35;;;1.45;;
69047;SDS011;56119;50.118;8.642;2023-04-24T12:01:01;3.97;;;1.80;;
69047;SDS011;56119;50.118;8.642;2023-04-24T12:03:27;2.88;;;2.17;;
69047;SDS011;56119;50.118;8.642;2023-04-24T12:06:04;3.03;;;2.15;;
69047;SDS011;56119;50.118;8.642;2023-04-24T12:08:31;4.45;;;2.90;;
69047;SDS011;56119;50.118;8.642;2023-04-24T12:10:57;2.47;;;1.80;;
69047;SDS011;56119;50.118;8.642;2023-04-24T12:13:25;4.88;;;2.00;;
69047;SDS011;56119;50.118;8.642;2023-04-24T12:15:51;1.48;;;1.30;;
69047;SDS011;56119;50.118;8.642;2023-04-24T12:18:17;1.95;;;1.48;;
69047;SDS011;56119;50.118;8.642;2023-04-24T12:20:43;3.15;;;2.10;;
69047;SDS011;56119;50.118;8.642;2023-04-24T12:23:09;3.45;;;2.28;;
69047;SDS011;56119;50.118;8.642;2023-04-24T12:25:35;3.72;;;2.17;;
69047;SDS011;56119;50.118;8.642;2023-04-24T12:30:34;4.70;;;2.70;;
69047;SDS011;56119;50.118;8.642;2023-04-24T12:33:01;3.65;;;2.50;;
69047;SDS011;56119;50.118;8.642;2023-04-24T12:35:28;3.65;;;2.60;;
69047;SDS011;56119;50.118;8.642;2023-04-24T12:38:04;3.80;;;2.33;;
69047;SDS011;56119;50.118;8.642;2023-04-24T12:40:31;4.60;;;2.92;;
69047;SDS011;56119;50.118;8.642;2023-04-24T12:42:57;4.70;;;3.03;;
69047;SDS011;56119;50.118;8.642;2023-04-24T12:45:23;4.13;;;2.72;;
69047;SDS011;56119;50.118;8.642;2023-04-24T12:47:50;5.40;;;2.78;;
69047;SDS011;56119;50.118;8.642;2023-04-24T12:50:16;4.88;;;3.30;;
69047;SDS011;56119;50.118;8.642;2023-04-24T12:52:43;4.38;;;3.40;;
69047;SDS011;56119;50.118;8.642;2023-04-24T12:55:09;5.18;;;3.22;;
69047;SDS011;56119;50.118;8.642;2023-04-24T12:57:37;5.25;;;3.58;;
69047;SDS011;56119;50.118;8.642;2023-04-24T13:00:07;5.82;;;3.72;;
69047;SDS011;56119;50.118;8.642;2023-04-24T13:02:33;6.07;;;3.67;;
69047;SDS011;56119;50.118;8.642;2023-04-24T13:04:59;5.35;;;4.00;;
69047;SDS011;56119;50.118;8.642;2023-04-24T13:07:26;4.63;;;3.17;;
69047;SDS011;56119;50.118;8.642;2023-04-24T13:09:53;6.28;;;3.70;;
69047;SDS011;56119;50.118;8.642;2023-04-24T13:12:20;5.45;;;4.25;;
69047;SDS011;56119;50.118;8.642;2023-04-24T13:14:46;4.90;;;3.67;;
69047;SDS011;56119;50.118;8.642;2023-04-24T13:17:12;4.57;;;3.47;;
69047;SDS011;56119;50.118;8.642;2023-04-24T13:19:40;7.72;;;4.05;;
69047;SDS011;56119;50.118;8.642;2023-04-24T13:22:06;5.15;;;3.72;;
69047;SDS011;56119;50.118;8.642;2023-04-24T13:24:33;4.43;;;3.58;;
69047;SDS011;56119;50.118;8.642;2023-04-24T13:26:59;7.18;;;3.72;;
69047;SDS011;56119;50.118;8.642;2023-04-24T13:29:26;3.75;;;2.95;;
69047;SDS011;56119;50.118;8.642;2023-04-24T13:31:52;8.07;;;2.85;;
69047;SDS011;56119;50.118;8.642;2023-04-24T13:34:20;7.72;;;3.65;;
69047;SDS011;56119;50.118;8.642;2023-04-24T13:36:46;5.05;;;3.03;;
69047;SDS011;56119;50.118;8.642;2023-04-24T13:39:12;3.35;;;2.63;;
69047;SDS011;56119;50.118;8.642;2023-04-24T13:41:38;3.08;;;2.33;;
69047;SDS011;56119;50.118;8.642;2023-04-24T13:44:04;4.03;;;2.60;;
69047;SDS011;56119;50.118;8.642;2023-04-24T13:46:30;4.93;;;2.70;;
69047;SDS011;56119;50.118;8.642;2023-04-24T13:48:58;6.63;;;2.95;;
69047;SDS011;56119;50.118;8.642;2023-04-24T13:51:27;4.55;;;3.08;;
69047;SDS011;56119;50.118;8.642;2023-04-24T13:53:53;5.53;;;3.20;;
69047;SDS011;56119;50.118;8.642;2023-04-24T13:56:20;3.25;;;2.78;;
69047;SDS011;56119;50.118;8.642;2023-04-24T13:58:46;8.50;;;3.50;;
69047;SDS011;56119;50.118;8.642;2023-04-24T14:01:12;6.70;;;3.03;;
69047;SDS011;56119;50.118;8.642;2023-04-24T14:03:38;4.78;;;3.65;;
69047;SDS011;56119;50.118;8.642;2023-04-24T14:06:04;5.65;;;3.10;;
69047;SDS011;56119;50.118;8.642;2023-04-24T14:08:31;4.82;;;3.40;;
69047;SDS011;56119;50.118;8.642;2023-04-24T14:10:57;6.10;;;3.50;;
69047;SDS011;56119;50.118;8.642;2023-04-24T14:13:23;6.70;;;3.00;;
69047;SDS011;56119;50.118;8.642;2023-04-24T14:15:51;5.60;;;2.90;;
69047;SDS011;56119;50.118;8.642;2023-04-24T14:18:17;4.68;;;3.10;;
69047;SDS011;56119;50.118;8.642;2023-04-24T14:20:43;6.13;;;3.08;;
69047;SDS011;56119;50.118;8.642;2023-04-24T14:23:10;4.65;;;2.90;;
69047;SDS011;56119;50.118;8.642;2023-04-24T14:25:36;4.80;;;3.05;;
69047;SDS011;56119;50.118;8.642;2023-04-24T14:28:02;5.38;;;2.72;;
69047;SDS011;56119;50.118;8.642;2023-04-24T14:30:28;5.43;;;3.33;;
69047;SDS011;56119;50.118;8.642;2023-04-24T14:32:54;4.47;;;3.22;;
69047;SDS011;56119;50.118;8.642;2023-04-24T14:35:20;3.78;;;2.88;;
69047;SDS011;56119;50.118;8.642;2023-04-24T14:37:46;4.03;;;2.97;;
69047;SDS011;56119;50.118;8.642;2023-04-24T14:40:13;5.60;;;3.63;;
69047;SDS011;56119;50.118;8.642;2023-04-24T14:42:39;6.60;;;3.58;;
69047;SDS011;56119;50.118;8.642;2023-04-24T14:45:06;5.63;;;3.55;;
69047;SDS011;56119;50.118;8.642;2023-04-24T14:47:33;8.68;;;3.63;;
69047;SDS011;56119;50.118;8.642;2023-04-24T14:49:59;6.30;;;3.70;;
69047;SDS011;56119;50.118;8.642;2023-04-24T14:52:25;3.67;;;3.10;;
69047;SDS011;56119;50.118;8.642;2023-04-24T14:54:51;5.50;;;3.70;;
69047;SDS011;56119;50.118;8.642;2023-04-24T14:57:17;6.00;;;4.10;;